Saturday, April 25, 2015, 10:44 PM EDT

KSEG, Selinsgrove Penn Valley Airport

Location: Selinsgrove, PA, United States Lat: 40.817
Local Time: 10:44 PM EDT ( 2:44 GMT) Lon: -76.867
Time Zone: US/Eastern Elev: 449 ft

Show me the last for .
Show Decoded

2015-04-25 21:53 METAR KSEG 260153Z AUTO 31004KT 10SM CLR 07/02 A2972 RMK AO2 SLP066 T00670017 =
2015-04-25 20:53 METAR KSEG 260053Z AUTO 00000KT 10SM CLR 08/01 A2972 RMK AO2 SLP066 T00830006 =
2015-04-25 19:53 METAR KSEG 252353Z AUTO 00000KT 10SM CLR 10/M01 A2972 RMK AO2 SLP065 T01001011
                 10139 20100 56009 =
2015-04-25 18:53 METAR KSEG 252253Z AUTO 00000KT 9SM CLR 13/M04 A2972 RMK AO2 SLP065 T01281044 =
2015-04-25 17:53 METAR KSEG 252153Z AUTO 36003KT 10SM CLR 13/M03 A2973 RMK AO2 SLP070 T01281033 =
2015-04-25 15:53 METAR KSEG 251953Z AUTO VRB05KT 10SM CLR 12/M03 A2977 RMK AO2 SLP084 T01221028 =
2015-04-25 14:53 METAR KSEG 251853Z AUTO VRB04KT 10SM CLR 12/M03 A2982 RMK AO2 SLP099 T01171028 =
2015-04-25 13:53 METAR KSEG 251753Z AUTO VRB03KT 10SM CLR 11/M03 A2986 RMK AO2 SLP112 T01111028
                 10111 20022 58029 =
2015-04-25 12:53 METAR KSEG 251653Z AUTO 32004KT 10SM CLR 09/M03 A2989 RMK AO2 SLP125 T00941033 =
2015-04-25 11:53 METAR KSEG 251553Z AUTO VRB04KT 10SM CLR 09/M03 A2992 RMK AO2 SLP133 T00891033 =
2015-04-25 10:53 METAR KSEG 251453Z AUTO VRB03KT 10SM CLR 07/M04 A2994 RMK AO2 SLP143 T00671044
                 58010 =
2015-04-25 09:53 METAR KSEG 251353Z AUTO 00000KT 10SM CLR 06/M05 A2996 RMK AO2 SLP148 T00561050 =
2015-04-25 08:53 METAR KSEG 251253Z AUTO 00000KT 10SM CLR 04/M06 A2997 RMK AO2 SLP151 T00441056 =
2015-04-25 07:53 METAR KSEG 251153Z AUTO 31003KT 10SM CLR 02/M02 A2997 RMK AO2 SLP152 T00221017
                 10022 21028 50000 =
2015-04-25 06:53 METAR KSEG 251053Z AUTO 00000KT 10SM CLR M01/M03 A2997 RMK AO2 SLP152 T10061028
                 =
2015-04-25 05:53 METAR KSEG 250953Z AUTO 00000KT 10SM CLR M02/M04 A2998 RMK AO2 SLP153 T10171044
                 =
2015-04-25 04:53 METAR KSEG 250853Z AUTO 00000KT 10SM CLR M01/M04 A2997 RMK AO2 SLP151 T10111039
                 56002 =
2015-04-25 03:53 METAR KSEG 250753Z AUTO 00000KT 10SM CLR 00/M06 A2997 RMK AO2 SLP152 T00001056 =
2015-04-25 02:53 METAR KSEG 250653Z AUTO 31004KT 10SM CLR M01/M04 A2997 RMK AO2 SLP153 T10111039
                 =
2015-04-25 01:53 METAR KSEG 250553Z AUTO 00000KT 10SM CLR M01/M04 A2998 RMK AO2 SLP154 T10061039
                 10100 21011 51001 =
2015-04-25 00:53 METAR KSEG 250453Z AUTO 00000KT 10SM CLR M01/M04 A2998 RMK AO2 SLP153 T10061039
                 401281011 TSNO =
2015-04-24 23:53 METAR KSEG 250353Z AUTO 00000KT 10SM CLR M01/M04 A2998 RMK AO2 SLP156 T10061044
                 =
2015-04-24 22:53 METAR KSEG 250253Z AUTO 35004KT 10SM CLR 01/M04 A2997 RMK AO2 SLP154 T00111044
                 51019 =

Support USWX by starting your Amazon purchase here.